Weather at Uams Heliport

Public forecast

Using degrees Fahrenheit for public forecast. Weather courtesy of forecast.io.

Closest aviation weather report (METAR) to Uams Heliport

Closest report is Bill & Hillary Clinton National Airport/Adams Field, 4.9 nm (9.1 km) ESE. Retrieved 2021/06/13 15:53 UTC (24 minutes ago):

KLIT 131553Z 02007KT 350V060 10SM FEW035 FEW250 32/23 A2996 RMK AO2 SLP142 T03220233

Closest aviation forecast (TAF) to Uams Heliport

Closest forecast is Bill & Hillary Clinton National Airport/Adams Field, 4.9 nm (9.1 km) ESE. Retrieved 2021/06/13 12:30 UTC (4 hours ago):

TAF KLIT 131126Z 1312/1412 29003KT P6SM SCT250 FM131500 36008KT P6SM SCT050 FM140000 03003KT P6SM SCT250